sensor_id;sensor_type;location;lat;lon;timestamp;pressure;altitude;pressure_sealevel;temperature;humidity
62111;BME280;48102;47.526;19.072;2023-02-16T04:41:25;101765.91;;;-2.75;100.00
62111;BME280;48102;47.526;19.072;2023-02-16T04:44:29;101765.91;;;-2.75;100.00
62111;BME280;48102;47.526;19.072;2023-02-16T04:47:31;101759.34;;;-3.24;100.00
62111;BME280;48102;47.526;19.072;2023-02-16T04:50:34;101761.19;;;-3.20;100.00
62111;BME280;48102;47.526;19.072;2023-02-16T04:53:37;101758.47;;;-3.24;100.00
62111;BME280;48102;47.526;19.072;2023-02-16T04:56:43;101750.72;;;-3.24;100.00
62111;BME280;48102;47.526;19.072;2023-02-16T04:59:46;101754.19;;;-3.24;100.00
62111;BME280;48102;47.526;19.072;2023-02-16T05:02:49;101751.84;;;-3.16;100.00
62111;BME280;48102;47.526;19.072;2023-02-16T05:05:51;101749.38;;;-3.12;100.00
62111;BME280;48102;47.526;19.072;2023-02-16T05:08:54;101740.84;;;-3.11;100.00
62111;BME280;48102;47.526;19.072;2023-02-16T05:11:57;101744.44;;;-3.04;100.00
62111;BME280;48102;47.526;19.072;2023-02-16T05:15:19;101740.16;;;-3.04;100.00
62111;BME280;48102;47.526;19.072;2023-02-16T05:18:22;101743.47;;;-3.08;100.00
62111;BME280;48102;47.526;19.072;2023-02-16T05:21:25;101753.78;;;-3.08;100.00
62111;BME280;48102;47.526;19.072;2023-02-16T05:24:33;101754.63;;;-3.09;100.00
62111;BME280;48102;47.526;19.072;2023-02-16T05:27:37;101747.03;;;-3.04;100.00
62111;BME280;48102;47.526;19.072;2023-02-16T05:30:39;101746.16;;;-3.05;100.00
62111;BME280;48102;47.526;19.072;2023-02-16T05:33:42;101744.47;;;-3.03;100.00
62111;BME280;48102;47.526;19.072;2023-02-16T05:36:45;101747.28;;;-2.95;100.00
62111;BME280;48102;47.526;19.072;2023-02-16T05:39:48;101745.28;;;-3.05;100.00
62111;BME280;48102;47.526;19.072;2023-02-16T05:42:54;101746.06;;;-3.08;100.00
62111;BME280;48102;47.526;19.072;2023-02-16T05:45:57;101752.19;;;-3.04;100.00
62111;BME280;48102;47.526;19.072;2023-02-16T05:49:01;101748.03;;;-2.99;100.00
62111;BME280;48102;47.526;19.072;2023-02-16T05:52:05;101746.38;;;-2.97;100.00
62111;BME280;48102;47.526;19.072;2023-02-16T05:55:08;101753.38;;;-2.93;100.00
62111;BME280;48102;47.526;19.072;2023-02-16T05:58:11;101746.66;;;-2.86;100.00
62111;BME280;48102;47.526;19.072;2023-02-16T06:01:14;101744.38;;;-2.75;100.00
62111;BME280;48102;47.526;19.072;2023-02-16T06:04:17;101736.59;;;-2.77;100.00
62111;BME280;48102;47.526;19.072;2023-02-16T06:07:20;101736.59;;;-2.77;100.00
62111;BME280;48102;47.526;19.072;2023-02-16T06:10:23;101738.37;;;-2.76;100.00
62111;BME280;48102;47.526;19.072;2023-02-16T06:13:26;101735.84;;;-2.73;100.00
62111;BME280;48102;47.526;19.072;2023-02-16T06:16:30;101735.97;;;-2.68;100.00
62111;BME280;48102;47.526;19.072;2023-02-16T06:19:33;101733.47;;;-2.65;100.00
62111;BME280;48102;47.526;19.072;2023-02-16T06:22:36;101737.88;;;-2.61;100.00
62111;BME280;48102;47.526;19.072;2023-02-16T06:25:43;101741.63;;;-2.50;100.00
62111;BME280;48102;47.526;19.072;2023-02-16T06:28:47;101745.13;;;-2.46;100.00
62111;BME280;48102;47.526;19.072;2023-02-16T06:31:50;101737.56;;;-2.40;100.00
62111;BME280;48102;47.526;19.072;2023-02-16T06:34:53;101736.13;;;-2.29;100.00
62111;BME280;48102;47.526;19.072;2023-02-16T06:37:56;101741.66;;;-2.14;100.00
62111;BME280;48102;47.526;19.072;2023-02-16T06:41:01;101739.19;;;-2.11;100.00
62111;BME280;48102;47.526;19.072;2023-02-16T06:44:09;101737.09;;;-1.89;100.00
62111;BME280;48102;47.526;19.072;2023-02-16T06:47:14;101739.22;;;-1.71;100.00
62111;BME280;48102;47.526;19.072;2023-02-16T06:50:16;101738.50;;;-1.66;100.00
62111;BME280;48102;47.526;19.072;2023-02-16T06:53:20;101732.56;;;-1.62;100.00
62111;BME280;48102;47.526;19.072;2023-02-16T06:56:24;101733.72;;;-1.47;100.00
62111;BME280;48102;47.526;19.072;2023-02-16T06:59:27;101733.91;;;-1.38;100.00
62111;BME280;48102;47.526;19.072;2023-02-16T07:02:29;101726.50;;;-1.23;100.00
62111;BME280;48102;47.526;19.072;2023-02-16T07:05:33;101739.66;;;-1.12;100.00
62111;BME280;48102;47.526;19.072;2023-02-16T07:08:36;101732.09;;;-1.02;100.00
62111;BME280;48102;47.526;19.072;2023-02-16T07:11:41;101722.78;;;-0.92;100.00
62111;BME280;48102;47.526;19.072;2023-02-16T07:14:44;101728.22;;;-0.78;100.00
62111;BME280;48102;47.526;19.072;2023-02-16T07:17:47;101727.56;;;-0.68;100.00
62111;BME280;48102;47.526;19.072;2023-02-16T07:20:50;101733.84;;;-0.55;100.00
62111;BME280;48102;47.526;19.072;2023-02-16T07:23:52;101732.28;;;-0.47;100.00
62111;BME280;48102;47.526;19.072;2023-02-16T07:26:56;101736.75;;;-0.38;100.00
62111;BME280;48102;47.526;19.072;2023-02-16T07:29:59;101735.31;;;-0.21;100.00
62111;BME280;48102;47.526;19.072;2023-02-16T07:33:02;101732.09;;;-0.05;100.00
62111;BME280;48102;47.526;19.072;2023-02-16T07:36:06;101746.19;;;0.11;100.00
62111;BME280;48102;47.526;19.072;2023-02-16T07:39:08;101739.28;;;0.12;100.00
62111;BME280;48102;47.526;19.072;2023-02-16T07:42:11;101725.69;;;0.28;100.00
62111;BME280;48102;47.526;19.072;2023-02-16T07:45:17;101725.94;;;0.45;100.00
62111;BME280;48102;47.526;19.072;2023-02-16T07:48:20;101726.13;;;0.60;100.00
62111;BME280;48102;47.526;19.072;2023-02-16T07:51:25;101723.34;;;1.15;100.00
62111;BME280;48102;47.526;19.072;2023-02-16T07:54:30;101722.19;;;1.73;100.00
62111;BME280;48102;47.526;19.072;2023-02-16T07:57:33;101723.84;;;1.67;100.00
62111;BME280;48102;47.526;19.072;2023-02-16T08:00:37;101722.13;;;1.64;100.00
62111;BME280;48102;47.526;19.072;2023-02-16T08:03:41;101725.63;;;1.71;100.00
62111;BME280;48102;47.526;19.072;2023-02-16T08:06:43;101725.69;;;1.80;100.00
62111;BME280;48102;47.526;19.072;2023-02-16T08:09:48;101720.72;;;2.11;100.00
62111;BME280;48102;47.526;19.072;2023-02-16T08:12:51;101722.75;;;2.58;100.00
62111;BME280;48102;47.526;19.072;2023-02-16T08:15:54;101729.13;;;3.24;100.00
62111;BME280;48102;47.526;19.072;2023-02-16T08:18:58;101725.66;;;3.34;100.00
62111;BME280;48102;47.526;19.072;2023-02-16T08:22:03;101729.94;;;3.14;100.00
62111;BME280;48102;47.526;19.072;2023-02-16T08:25:08;101729.88;;;2.91;100.00
62111;BME280;48102;47.526;19.072;2023-02-16T08:28:11;101729.88;;;3.01;100.00
62111;BME280;48102;47.526;19.072;2023-02-16T08:31:18;101733.50;;;3.37;100.00
62111;BME280;48102;47.526;19.072;2023-02-16T08:34:23;101732.66;;;3.70;100.00
62111;BME280;48102;47.526;19.072;2023-02-16T08:37:25;101735.25;;;3.46;100.00
62111;BME280;48102;47.526;19.072;2023-02-16T08:40:31;101740.44;;;3.44;100.00
62111;BME280;48102;47.526;19.072;2023-02-16T08:43:34;101732.63;;;3.41;100.00
62111;BME280;48102;47.526;19.072;2023-02-16T08:46:38;101730.00;;;3.44;100.00
62111;BME280;48102;47.526;19.072;2023-02-16T08:49:41;101727.44;;;3.63;100.00
62111;BME280;48102;47.526;19.072;2023-02-16T08:52:48;101747.41;;;3.61;100.00
62111;BME280;48102;47.526;19.072;2023-02-16T08:55:53;101737.00;;;4.03;100.00
62111;BME280;48102;47.526;19.072;2023-02-16T08:58:58;101737.59;;;5.14;100.00
62111;BME280;48102;47.526;19.072;2023-02-16T09:02:01;101727.31;;;6.11;100.00
62111;BME280;48102;47.526;19.072;2023-02-16T09:05:04;101726.72;;;5.74;100.00
62111;BME280;48102;47.526;19.072;2023-02-16T09:08:10;101733.97;;;5.40;100.00
62111;BME280;48102;47.526;19.072;2023-02-16T09:11:13;101732.34;;;5.14;100.00
62111;BME280;48102;47.526;19.072;2023-02-16T09:14:17;101728.03;;;5.04;100.00
62111;BME280;48102;47.526;19.072;2023-02-16T09:17:21;101724.50;;;5.13;100.00
62111;BME280;48102;47.526;19.072;2023-02-16T09:20:24;101732.38;;;5.08;100.00
62111;BME280;48102;47.526;19.072;2023-02-16T09:23:29;101720.16;;;5.15;100.00
62111;BME280;48102;47.526;19.072;2023-02-16T09:26:34;101724.53;;;5.11;100.00
62111;BME280;48102;47.526;19.072;2023-02-16T09:29:41;101720.94;;;5.29;100.00
62111;BME280;48102;47.526;19.072;2023-02-16T09:32:45;101724.34;;;5.39;100.00
62111;BME280;48102;47.526;19.072;2023-02-16T09:35:48;101721.75;;;5.37;100.00
62111;BME280;48102;47.526;19.072;2023-02-16T09:38:54;101729.56;;;5.43;100.00
62111;BME280;48102;47.526;19.072;2023-02-16T09:42:08;101727.84;;;6.47;100.00
62111;BME280;48102;47.526;19.072;2023-02-16T09:45:16;101718.31;;;7.74;89.55
62111;BME280;48102;47.526;19.072;2023-02-16T09:48:35;101725.47;;;7.63;88.32
62111;BME280;48102;47.526;19.072;2023-02-16T09:51:39;101717.44;;;7.12;90.07
62111;BME280;48102;47.526;19.072;2023-02-16T09:54:53;101717.25;;;6.61;97.10
62111;BME280;48102;47.526;19.072;2023-02-16T10:01:41;101705.81;;;6.65;99.31
62111;BME280;48102;47.526;19.072;2023-02-16T10:08:26;101705.41;;;6.98;99.36
62111;BME280;48102;47.526;19.072;2023-02-16T10:11:42;101707.13;;;7.01;99.48
62111;BME280;48102;47.526;19.072;2023-02-16T10:14:55;101696.34;;;7.21;99.39
62111;BME280;48102;47.526;19.072;2023-02-16T10:18:13;101698.03;;;7.25;98.73
62111;BME280;48102;47.526;19.072;2023-02-16T10:21:23;101694.44;;;7.32;98.85
62111;BME280;48102;47.526;19.072;2023-02-16T10:24:30;101694.25;;;7.47;99.18
62111;BME280;48102;47.526;19.072;2023-02-16T10:27:42;101692.50;;;7.45;96.39
62111;BME280;48102;47.526;19.072;2023-02-16T10:30:52;101691.34;;;7.63;97.01
62111;BME280;48102;47.526;19.072;2023-02-16T10:35:08;101689.03;;;7.97;95.75
62111;BME280;48102;47.526;19.072;2023-02-16T10:41:02;101679.88;;;8.21;93.19
62111;BME280;48102;47.526;19.072;2023-02-16T10:44:09;101681.22;;;7.94;94.47
62111;BME280;48102;47.526;19.072;2023-02-16T10:50:59;101668.34;;;8.28;91.31
62111;BME280;48102;47.526;19.072;2023-02-16T10:54:19;101664.94;;;8.23;89.93
62111;BME280;48102;47.526;19.072;2023-02-16T10:57:27;101661.81;;;8.02;92.17
62111;BME280;48102;47.526;19.072;2023-02-16T11:00:57;101660.69;;;8.17;91.42
62111;BME280;48102;47.526;19.072;2023-02-16T11:04:06;101648.09;;;8.33;91.69
62111;BME280;48102;47.526;19.072;2023-02-16T11:07:16;101653.22;;;8.42;90.85
62111;BME280;48102;47.526;19.072;2023-02-16T11:10:36;101644.31;;;8.51;88.53
62111;BME280;48102;47.526;19.072;2023-02-16T11:13:40;101648.50;;;8.60;89.27
62111;BME280;48102;47.526;19.072;2023-02-16T11:16:43;101643.03;;;8.69;87.48
62111;BME280;48102;47.526;19.072;2023-02-16T11:19:51;101642.34;;;8.59;89.21
62111;BME280;48102;47.526;19.072;2023-02-16T11:26:27;101632.28;;;8.81;88.79
62111;BME280;48102;47.526;19.072;2023-02-16T11:29:31;101626.00;;;8.87;88.02
62111;BME280;48102;47.526;19.072;2023-02-16T11:32:35;101615.41;;;8.91;87.15
62111;BME280;48102;47.526;19.072;2023-02-16T11:35:42;101617.75;;;9.03;84.88
62111;BME280;48102;47.526;19.072;2023-02-16T11:39:02;101615.03;;;9.07;85.18
62111;BME280;48102;47.526;19.072;2023-02-16T11:42:19;101614.31;;;9.00;85.65
62111;BME280;48102;47.526;19.072;2023-02-16T11:45:32;101606.50;;;8.97;86.37
62111;BME280;48102;47.526;19.072;2023-02-16T11:48:37;101602.56;;;9.16;85.46
62111;BME280;48102;47.526;19.072;2023-02-16T11:51:40;101610.91;;;9.32;86.03
62111;BME280;48102;47.526;19.072;2023-02-16T11:54:47;101601.62;;;9.54;83.12
62111;BME280;48102;47.526;19.072;2023-02-16T11:57:51;101595.38;;;9.57;81.91
62111;BME280;48102;47.526;19.072;2023-02-16T12:01:19;101587.50;;;9.57;80.53
62111;BME280;48102;47.526;19.072;2023-02-16T12:04:49;101579.59;;;9.59;80.17
62111;BME280;48102;47.526;19.072;2023-02-16T12:08:23;101577.38;;;9.76;80.27
62111;BME280;48102;47.526;19.072;2023-02-16T12:15:00;101573.53;;;9.55;81.51
62111;BME280;48102;47.526;19.072;2023-02-16T12:21:45;101550.03;;;9.80;78.87
62111;BME280;48102;47.526;19.072;2023-02-16T12:28:08;101541.78;;;10.25;75.34
62111;BME280;48102;47.526;19.072;2023-02-16T12:31:21;101546.38;;;10.17;77.52
62111;BME280;48102;47.526;19.072;2023-02-16T12:41:06;101534.16;;;10.73;73.96
62111;BME280;48102;47.526;19.072;2023-02-16T12:44:17;101541.00;;;10.80;70.92
62111;BME280;48102;47.526;19.072;2023-02-16T12:47:41;101525.72;;;10.90;72.66
62111;BME280;48102;47.526;19.072;2023-02-16T12:50:47;101522.00;;;10.97;70.79
62111;BME280;48102;47.526;19.072;2023-02-16T12:54:00;101516.59;;;11.00;70.27
62111;BME280;48102;47.526;19.072;2023-02-16T12:57:14;101513.56;;;11.13;69.07
62111;BME280;48102;47.526;19.072;2023-02-16T13:00:23;101508.59;;;11.03;68.66
62111;BME280;48102;47.526;19.072;2023-02-16T13:03:37;101502.84;;;10.91;71.00
62111;BME280;48102;47.526;19.072;2023-02-16T13:06:47;101500.22;;;10.91;70.35
62111;BME280;48102;47.526;19.072;2023-02-16T13:13:25;101490.22;;;11.52;69.87
62111;BME280;48102;47.526;19.072;2023-02-16T13:19:39;101476.81;;;11.58;67.70
62111;BME280;48102;47.526;19.072;2023-02-16T13:33:42;101455.41;;;12.36;62.14
62111;BME280;48102;47.526;19.072;2023-02-16T13:40:33;101451.28;;;13.15;57.94
62111;BME280;48102;47.526;19.072;2023-02-16T13:43:53;101450.41;;;14.14;55.71
62111;BME280;48102;47.526;19.072;2023-02-16T13:46:58;101447.22;;;15.16;49.98
62111;BME280;48102;47.526;19.072;2023-02-16T13:53:31;101443.63;;;18.79;41.47
62111;BME280;48102;47.526;19.072;2023-02-16T13:56:36;101439.72;;;20.49;38.15
62111;BME280;48102;47.526;19.072;2023-02-16T14:12:39;101417.22;;;24.52;30.20
62111;BME280;48102;47.526;19.072;2023-02-16T14:15:49;101423.87;;;24.96;30.71
62111;BME280;48102;47.526;19.072;2023-02-16T14:18:54;101415.72;;;25.92;28.12
62111;BME280;48102;47.526;19.072;2023-02-16T14:22:08;101421.44;;;25.79;27.90
62111;BME280;48102;47.526;19.072;2023-02-16T14:31:40;101413.09;;;23.88;31.18
62111;BME280;48102;47.526;19.072;2023-02-16T14:34:53;101410.41;;;23.58;31.67
62111;BME280;48102;47.526;19.072;2023-02-16T14:37:58;101415.06;;;22.61;32.45
62111;BME280;48102;47.526;19.072;2023-02-16T14:41:06;101410.81;;;21.36;33.91
62111;BME280;48102;47.526;19.072;2023-02-16T14:44:24;101408.72;;;20.58;35.29
62111;BME280;48102;47.526;19.072;2023-02-16T14:51:09;101404.00;;;21.43;34.62
62111;BME280;48102;47.526;19.072;2023-02-16T15:01:39;101394.13;;;20.38;36.11
62111;BME280;48102;47.526;19.072;2023-02-16T15:04:45;101400.94;;;19.18;38.40
62111;BME280;48102;47.526;19.072;2023-02-16T15:07:52;101396.69;;;18.21;40.22
62111;BME280;48102;47.526;19.072;2023-02-16T15:10:56;101391.06;;;17.27;42.09
62111;BME280;48102;47.526;19.072;2023-02-16T15:14:18;101396.19;;;16.24;43.43
62111;BME280;48102;47.526;19.072;2023-02-16T15:17:35;101388.50;;;15.04;44.68
62111;BME280;48102;47.526;19.072;2023-02-16T15:20:42;101388.47;;;14.16;46.81
62111;BME280;48102;47.526;19.072;2023-02-16T15:23:49;101389.66;;;13.52;48.99
62111;BME280;48102;47.526;19.072;2023-02-16T15:26:55;101387.75;;;13.15;49.84
62111;BME280;48102;47.526;19.072;2023-02-16T15:30:25;101384.09;;;12.77;51.65
62111;BME280;48102;47.526;19.072;2023-02-16T15:33:39;101386.88;;;12.32;52.52
62111;BME280;48102;47.526;19.072;2023-02-16T15:36:43;101387.03;;;11.81;54.93
62111;BME280;48102;47.526;19.072;2023-02-16T15:39:49;101387.72;;;11.40;57.73
62111;BME280;48102;47.526;19.072;2023-02-16T15:46:36;101394.75;;;10.64;66.18
62111;BME280;48102;47.526;19.072;2023-02-16T15:49:40;101390.63;;;10.29;67.39
62111;BME280;48102;47.526;19.072;2023-02-16T15:52:43;101394.47;;;9.89;70.23
62111;BME280;48102;47.526;19.072;2023-02-16T15:55:46;101394.75;;;9.49;73.44
62111;BME280;48102;47.526;19.072;2023-02-16T15:58:49;101395.78;;;9.12;77.15
62111;BME280;48102;47.526;19.072;2023-02-16T16:01:59;101395.81;;;8.78;81.22
62111;BME280;48102;47.526;19.072;2023-02-16T16:05:06;101397.53;;;8.43;85.75
62111;BME280;48102;47.526;19.072;2023-02-16T16:08:13;101392.19;;;8.09;90.52
62111;BME280;48102;47.526;19.072;2023-02-16T16:11:19;101387.59;;;7.78;93.97
62111;BME280;48102;47.526;19.072;2023-02-16T16:14:22;101390.72;;;7.54;97.47
62111;BME280;48102;47.526;19.072;2023-02-16T16:17:30;101395.31;;;7.44;100.00
62111;BME280;48102;47.526;19.072;2023-02-16T16:20:38;101397.66;;;7.12;100.00
62111;BME280;48102;47.526;19.072;2023-02-16T16:24:02;101403.41;;;6.84;100.00
